sensor_id;sensor_type;location;lat;lon;timestamp;pressure;altitude;pressure_sealevel;temperature;humidity
66668;BME280;57205;51.438;-2.006;2023-03-04T00:00:18;102390.72;;;4.46;100.00
66668;BME280;57205;51.438;-2.006;2023-03-04T00:02:43;102394.22;;;4.47;100.00
66668;BME280;57205;51.438;-2.006;2023-03-04T00:05:09;102406.44;;;4.48;100.00
66668;BME280;57205;51.438;-2.006;2023-03-04T00:07:35;102403.63;;;4.49;100.00
66668;BME280;57205;51.438;-2.006;2023-03-04T00:10:00;102409.09;;;4.48;100.00
66668;BME280;57205;51.438;-2.006;2023-03-04T00:12:25;102407.28;;;4.48;100.00
66668;BME280;57205;51.438;-2.006;2023-03-04T00:14:50;102416.06;;;4.49;100.00
66668;BME280;57205;51.438;-2.006;2023-03-04T00:17:16;102407.28;;;4.48;100.00
66668;BME280;57205;51.438;-2.006;2023-03-04T00:19:41;102410.75;;;4.49;100.00
66668;BME280;57205;51.438;-2.006;2023-03-04T00:22:06;102410.13;;;4.47;100.00
66668;BME280;57205;51.438;-2.006;2023-03-04T00:24:31;102401.31;;;4.46;100.00
66668;BME280;57205;51.438;-2.006;2023-03-04T00:26:57;102406.63;;;4.46;100.00
66668;BME280;57205;51.438;-2.006;2023-03-04T00:29:22;102407.66;;;4.45;100.00
66668;BME280;57205;51.438;-2.006;2023-03-04T00:31:47;102407.00;;;4.43;100.00
66668;BME280;57205;51.438;-2.006;2023-03-04T00:34:12;102407.84;;;4.44;100.00
66668;BME280;57205;51.438;-2.006;2023-03-04T00:36:38;102411.28;;;4.44;100.00
66668;BME280;57205;51.438;-2.006;2023-03-04T00:39:03;102402.69;;;4.42;100.00
66668;BME280;57205;51.438;-2.006;2023-03-04T00:41:28;102402.34;;;4.45;100.00
66668;BME280;57205;51.438;-2.006;2023-03-04T00:43:54;102409.47;;;4.45;100.00
66668;BME280;57205;51.438;-2.006;2023-03-04T00:46:19;102403.78;;;4.48;100.00
66668;BME280;57205;51.438;-2.006;2023-03-04T00:48:44;102398.03;;;4.44;100.00
66668;BME280;57205;51.438;-2.006;2023-03-04T00:51:09;102402.34;;;4.45;100.00
66668;BME280;57205;51.438;-2.006;2023-03-04T00:53:35;102399.97;;;4.50;100.00
66668;BME280;57205;51.438;-2.006;2023-03-04T00:56:00;102403.25;;;4.52;100.00
66668;BME280;57205;51.438;-2.006;2023-03-04T00:58:25;102405.28;;;4.50;100.00
66668;BME280;57205;51.438;-2.006;2023-03-04T01:00:51;102406.28;;;4.49;100.00
66668;BME280;57205;51.438;-2.006;2023-03-04T01:03:16;102411.41;;;4.51;100.00
66668;BME280;57205;51.438;-2.006;2023-03-04T01:05:41;102408.94;;;4.49;100.00
66668;BME280;57205;51.438;-2.006;2023-03-04T01:08:06;102408.94;;;4.49;100.00
66668;BME280;57205;51.438;-2.006;2023-03-04T01:10:32;102414.41;;;4.48;100.00
66668;BME280;57205;51.438;-2.006;2023-03-04T01:12:57;102403.97;;;4.46;100.00
66668;BME280;57205;51.438;-2.006;2023-03-04T01:15:22;102405.00;;;4.45;100.00
66668;BME280;57205;51.438;-2.006;2023-03-04T01:17:48;102408.63;;;4.44;100.00
66668;BME280;57205;51.438;-2.006;2023-03-04T01:20:13;102399.50;;;4.47;100.00
66668;BME280;57205;51.438;-2.006;2023-03-04T01:22:38;102397.88;;;4.46;100.00
66668;BME280;57205;51.438;-2.006;2023-03-04T01:25:04;102406.16;;;4.43;100.00
66668;BME280;57205;51.438;-2.006;2023-03-04T01:27:30;102396.41;;;4.43;100.00
66668;BME280;57205;51.438;-2.006;2023-03-04T01:29:55;102397.03;;;4.45;100.00
66668;BME280;57205;51.438;-2.006;2023-03-04T01:32:20;102397.31;;;4.50;100.00
66668;BME280;57205;51.438;-2.006;2023-03-04T01:34:45;102392.19;;;4.49;100.00
66668;BME280;57205;51.438;-2.006;2023-03-04T01:37:11;102385.25;;;4.48;100.00
66668;BME280;57205;51.438;-2.006;2023-03-04T01:39:37;102388.91;;;4.47;100.00
66668;BME280;57205;51.438;-2.006;2023-03-04T01:42:03;102384.78;;;4.44;100.00
66668;BME280;57205;51.438;-2.006;2023-03-04T01:44:28;102391.75;;;4.45;100.00
66668;BME280;57205;51.438;-2.006;2023-03-04T01:46:54;102389.75;;;4.47;100.00
66668;BME280;57205;51.438;-2.006;2023-03-04T01:49:20;102383.59;;;4.47;100.00
66668;BME280;57205;51.438;-2.006;2023-03-04T01:51:49;102377.13;;;4.49;100.00
66668;BME280;57205;51.438;-2.006;2023-03-04T01:54:16;102377.13;;;4.49;100.00
66668;BME280;57205;51.438;-2.006;2023-03-04T01:56:42;102367.91;;;4.45;100.00
66668;BME280;57205;51.438;-2.006;2023-03-04T02:01:37;102373.84;;;4.47;100.00
66668;BME280;57205;51.438;-2.006;2023-03-04T02:04:02;102368.72;;;4.46;100.00
66668;BME280;57205;51.438;-2.006;2023-03-04T02:06:28;102365.06;;;4.47;100.00
66668;BME280;57205;51.438;-2.006;2023-03-04T02:08:54;102371.84;;;4.49;100.00
66668;BME280;57205;51.438;-2.006;2023-03-04T02:11:19;102363.69;;;4.51;100.00
66668;BME280;57205;51.438;-2.006;2023-03-04T02:13:44;102368.53;;;4.47;100.00
66668;BME280;57205;51.438;-2.006;2023-03-04T02:16:10;102369.72;;;4.45;100.00
66668;BME280;57205;51.438;-2.006;2023-03-04T02:18:35;102367.91;;;4.45;100.00
66668;BME280;57205;51.438;-2.006;2023-03-04T02:21:04;102362.94;;;4.42;100.00
66668;BME280;57205;51.438;-2.006;2023-03-04T02:23:38;102363.94;;;4.41;100.00
66668;BME280;57205;51.438;-2.006;2023-03-04T02:26:17;102361.13;;;4.43;100.00
66668;BME280;57205;51.438;-2.006;2023-03-04T02:28:44;102360.94;;;4.44;100.00
66668;BME280;57205;51.438;-2.006;2023-03-04T02:31:19;102352.19;;;4.44;100.00
66668;BME280;57205;51.438;-2.006;2023-03-04T02:33:45;102355.63;;;4.44;100.00
66668;BME280;57205;51.438;-2.006;2023-03-04T02:36:11;102351.34;;;4.43;100.00
66668;BME280;57205;51.438;-2.006;2023-03-04T02:38:36;102350.31;;;4.44;100.00
66668;BME280;57205;51.438;-2.006;2023-03-04T02:41:01;102349.69;;;4.42;100.00
66668;BME280;57205;51.438;-2.006;2023-03-04T02:43:27;102344.38;;;4.42;100.00
66668;BME280;57205;51.438;-2.006;2023-03-04T02:45:52;102353.34;;;4.41;100.00
66668;BME280;57205;51.438;-2.006;2023-03-04T02:48:19;102348.25;;;4.40;100.00
66668;BME280;57205;51.438;-2.006;2023-03-04T02:50:46;102349.06;;;4.40;100.00
66668;BME280;57205;51.438;-2.006;2023-03-04T02:53:11;102353.34;;;4.41;100.00
66668;BME280;57205;51.438;-2.006;2023-03-04T02:55:37;102358.19;;;4.38;100.00
66668;BME280;57205;51.438;-2.006;2023-03-04T02:58:02;102357.03;;;4.40;100.00
66668;BME280;57205;51.438;-2.006;2023-03-04T03:00:27;102360.28;;;4.42;100.00
66668;BME280;57205;51.438;-2.006;2023-03-04T03:02:53;102363.59;;;4.44;100.00
66668;BME280;57205;51.438;-2.006;2023-03-04T03:05:20;102359.22;;;4.51;99.63
66668;BME280;57205;51.438;-2.006;2023-03-04T03:07:46;102354.25;;;4.48;100.00
66668;BME280;57205;51.438;-2.006;2023-03-04T03:10:11;102352.63;;;4.47;100.00
66668;BME280;57205;51.438;-2.006;2023-03-04T03:12:37;102354.63;;;4.45;99.71
66668;BME280;57205;51.438;-2.006;2023-03-04T03:15:03;102359.47;;;4.42;99.23
66668;BME280;57205;51.438;-2.006;2023-03-04T03:17:28;102347.22;;;4.41;99.75
66668;BME280;57205;51.438;-2.006;2023-03-04T03:19:54;102351.72;;;4.40;99.57
66668;BME280;57205;51.438;-2.006;2023-03-04T03:22:19;102343.94;;;4.39;99.72
66668;BME280;57205;51.438;-2.006;2023-03-04T03:24:44;102343.13;;;4.38;100.00
66668;BME280;57205;51.438;-2.006;2023-03-04T03:27:09;102340.81;;;4.35;100.00
66668;BME280;57205;51.438;-2.006;2023-03-04T03:29:35;102347.13;;;4.34;100.00
66668;BME280;57205;51.438;-2.006;2023-03-04T03:32:00;102340.16;;;4.33;99.48
66668;BME280;57205;51.438;-2.006;2023-03-04T03:34:25;102338.34;;;4.34;99.74
66668;BME280;57205;51.438;-2.006;2023-03-04T03:36:51;102339.53;;;4.31;99.50
66668;BME280;57205;51.438;-2.006;2023-03-04T03:39:16;102345.84;;;4.30;98.66
66668;BME280;57205;51.438;-2.006;2023-03-04T03:41:41;102340.53;;;4.30;98.58
66668;BME280;57205;51.438;-2.006;2023-03-04T03:44:06;102347.03;;;4.28;98.26
66668;BME280;57205;51.438;-2.006;2023-03-04T03:46:32;102349.66;;;4.28;98.25
66668;BME280;57205;51.438;-2.006;2023-03-04T03:48:57;102343.72;;;4.26;98.27
66668;BME280;57205;51.438;-2.006;2023-03-04T03:51:22;102354.31;;;4.26;97.75
66668;BME280;57205;51.438;-2.006;2023-03-04T03:53:48;102339.63;;;4.23;98.41
66668;BME280;57205;51.438;-2.006;2023-03-04T03:56:13;102349.41;;;4.23;98.50
66668;BME280;57205;51.438;-2.006;2023-03-04T03:58:38;102350.41;;;4.22;99.24
66668;BME280;57205;51.438;-2.006;2023-03-04T04:01:04;102355.53;;;4.23;99.11
66668;BME280;57205;51.438;-2.006;2023-03-04T04:03:29;102348.38;;;4.24;99.30
66668;BME280;57205;51.438;-2.006;2023-03-04T04:05:55;102347.41;;;4.25;99.14
66668;BME280;57205;51.438;-2.006;2023-03-04T04:08:20;102360.00;;;4.23;99.75
66668;BME280;57205;51.438;-2.006;2023-03-04T04:10:45;102350.22;;;4.23;99.74
66668;BME280;57205;51.438;-2.006;2023-03-04T04:13:11;102351.69;;;4.26;99.21
66668;BME280;57205;51.438;-2.006;2023-03-04T04:15:36;102355.16;;;4.26;99.09
66668;BME280;57205;51.438;-2.006;2023-03-04T04:18:03;102358.81;;;4.25;99.62
66668;BME280;57205;51.438;-2.006;2023-03-04T04:20:28;102357.34;;;4.23;100.00
66668;BME280;57205;51.438;-2.006;2023-03-04T04:22:53;102360.19;;;4.21;100.00
66668;BME280;57205;51.438;-2.006;2023-03-04T04:25:18;102361.34;;;4.19;100.00
66668;BME280;57205;51.438;-2.006;2023-03-04T04:27:44;102368.47;;;4.18;100.00
66668;BME280;57205;51.438;-2.006;2023-03-04T04:30:09;102365.66;;;4.20;100.00
66668;BME280;57205;51.438;-2.006;2023-03-04T04:32:35;102363.81;;;4.20;100.00
66668;BME280;57205;51.438;-2.006;2023-03-04T04:35:00;102369.41;;;4.25;100.00
66668;BME280;57205;51.438;-2.006;2023-03-04T04:37:25;102362.47;;;4.24;100.00
66668;BME280;57205;51.438;-2.006;2023-03-04T04:39:50;102366.13;;;4.23;100.00
66668;BME280;57205;51.438;-2.006;2023-03-04T04:42:16;102367.09;;;4.22;99.70
66668;BME280;57205;51.438;-2.006;2023-03-04T04:44:41;102370.59;;;4.23;99.29
66668;BME280;57205;51.438;-2.006;2023-03-04T04:47:06;102365.47;;;4.21;99.54
66668;BME280;57205;51.438;-2.006;2023-03-04T04:49:33;102371.41;;;4.23;99.74
66668;BME280;57205;51.438;-2.006;2023-03-04T04:51:58;102374.88;;;4.24;100.00
66668;BME280;57205;51.438;-2.006;2023-03-04T04:54:23;102371.59;;;4.22;100.00
66668;BME280;57205;51.438;-2.006;2023-03-04T04:56:49;102371.75;;;4.20;100.00
66668;BME280;57205;51.438;-2.006;2023-03-04T04:59:14;102374.41;;;4.20;100.00
66668;BME280;57205;51.438;-2.006;2023-03-04T05:01:40;102375.25;;;4.21;100.00
66668;BME280;57205;51.438;-2.006;2023-03-04T05:04:05;102373.44;;;4.21;100.00
66668;BME280;57205;51.438;-2.006;2023-03-04T05:06:30;102374.78;;;4.17;100.00
66668;BME280;57205;51.438;-2.006;2023-03-04T05:08:56;102375.63;;;4.18;100.00
66668;BME280;57205;51.438;-2.006;2023-03-04T05:11:21;102370.50;;;4.16;100.00
66668;BME280;57205;51.438;-2.006;2023-03-04T05:13:47;102376.97;;;4.14;100.00
66668;BME280;57205;51.438;-2.006;2023-03-04T05:16:12;102379.16;;;4.10;100.00
66668;BME280;57205;51.438;-2.006;2023-03-04T05:18:38;102378.31;;;4.10;100.00
66668;BME280;57205;51.438;-2.006;2023-03-04T05:21:03;102380.97;;;4.10;100.00
66668;BME280;57205;51.438;-2.006;2023-03-04T05:23:30;102378.31;;;4.10;100.00
66668;BME280;57205;51.438;-2.006;2023-03-04T05:25:55;102373.22;;;4.08;100.00
66668;BME280;57205;51.438;-2.006;2023-03-04T05:28:21;102378.31;;;4.10;100.00
66668;BME280;57205;51.438;-2.006;2023-03-04T05:30:46;102378.50;;;4.08;99.93
66668;BME280;57205;51.438;-2.006;2023-03-04T05:33:12;102374.03;;;4.09;100.00
66668;BME280;57205;51.438;-2.006;2023-03-04T05:35:38;102377.50;;;4.09;100.00
66668;BME280;57205;51.438;-2.006;2023-03-04T05:38:05;102374.66;;;4.11;100.00
66668;BME280;57205;51.438;-2.006;2023-03-04T05:40:30;102376.03;;;4.07;100.00
66668;BME280;57205;51.438;-2.006;2023-03-04T05:42:56;102377.50;;;4.09;100.00
66668;BME280;57205;51.438;-2.006;2023-03-04T05:45:21;102378.13;;;4.11;100.00
66668;BME280;57205;51.438;-2.006;2023-03-04T05:47:47;102381.63;;;4.12;100.00
66668;BME280;57205;51.438;-2.006;2023-03-04T05:50:12;102382.59;;;4.11;100.00
66668;BME280;57205;51.438;-2.006;2023-03-04T05:52:37;102382.13;;;4.07;100.00
66668;BME280;57205;51.438;-2.006;2023-03-04T05:55:03;102385.63;;;4.08;100.00
66668;BME280;57205;51.438;-2.006;2023-03-04T05:57:28;102383.16;;;4.06;99.89
66668;BME280;57205;51.438;-2.006;2023-03-04T05:59:53;102381.81;;;4.10;99.21
66668;BME280;57205;51.438;-2.006;2023-03-04T06:02:19;102385.25;;;4.11;97.77
66668;BME280;57205;51.438;-2.006;2023-03-04T06:04:44;102387.44;;;4.07;98.72
66668;BME280;57205;51.438;-2.006;2023-03-04T06:07:09;102384.13;;;4.05;97.73
66668;BME280;57205;51.438;-2.006;2023-03-04T06:09:35;102391.28;;;4.05;98.25
66668;BME280;57205;51.438;-2.006;2023-03-04T06:12:00;102393.28;;;4.03;98.82
66668;BME280;57205;51.438;-2.006;2023-03-04T06:14:26;102384.88;;;3.99;99.00
66668;BME280;57205;51.438;-2.006;2023-03-04T06:16:51;102389.16;;;4.00;99.00
66668;BME280;57205;51.438;-2.006;2023-03-04T06:19:16;102381.22;;;4.00;99.50
66668;BME280;57205;51.438;-2.006;2023-03-04T06:21:41;102393.47;;;4.01;100.00
66668;BME280;57205;51.438;-2.006;2023-03-04T06:24:07;102389.44;;;4.05;100.00
66668;BME280;57205;51.438;-2.006;2023-03-04T06:26:32;102391.94;;;4.07;99.64
66668;BME280;57205;51.438;-2.006;2023-03-04T06:28:57;102385.63;;;4.08;98.82
66668;BME280;57205;51.438;-2.006;2023-03-04T06:31:23;102389.44;;;4.05;99.43
66668;BME280;57205;51.438;-2.006;2023-03-04T06:33:48;102391.63;;;4.02;100.00
66668;BME280;57205;51.438;-2.006;2023-03-04T06:36:14;102396.44;;;3.98;100.00
66668;BME280;57205;51.438;-2.006;2023-03-04T06:38:39;102390.81;;;4.01;100.00
66668;BME280;57205;51.438;-2.006;2023-03-04T06:41:07;102394.72;;;4.05;100.00
66668;BME280;57205;51.438;-2.006;2023-03-04T06:43:33;102388.44;;;4.06;100.00
66668;BME280;57205;51.438;-2.006;2023-03-04T06:45:58;102393.75;;;4.06;100.00
66668;BME280;57205;51.438;-2.006;2023-03-04T06:48:23;102392.72;;;4.07;100.00
66668;BME280;57205;51.438;-2.006;2023-03-04T06:50:48;102391.47;;;4.03;100.00
66668;BME280;57205;51.438;-2.006;2023-03-04T06:53:14;102394.28;;;4.02;100.00
66668;BME280;57205;51.438;-2.006;2023-03-04T06:55:39;102397.09;;;4.00;100.00
66668;BME280;57205;51.438;-2.006;2023-03-04T06:58:04;102403.88;;;4.03;100.00
66668;BME280;57205;51.438;-2.006;2023-03-04T07:00:30;102409.81;;;4.05;100.00
66668;BME280;57205;51.438;-2.006;2023-03-04T07:02:56;102410.28;;;4.08;100.00
66668;BME280;57205;51.438;-2.006;2023-03-04T07:05:22;102420.88;;;4.08;100.00
66668;BME280;57205;51.438;-2.006;2023-03-04T07:07:47;102412.28;;;4.06;100.00
66668;BME280;57205;51.438;-2.006;2023-03-04T07:10:13;102417.59;;;4.06;100.00
66668;BME280;57205;51.438;-2.006;2023-03-04T07:12:38;102416.75;;;4.06;100.00
66668;BME280;57205;51.438;-2.006;2023-03-04T07:15:04;102421.72;;;4.09;100.00
66668;BME280;57205;51.438;-2.006;2023-03-04T07:17:29;102411.75;;;4.11;100.00
66668;BME280;57205;51.438;-2.006;2023-03-04T07:19:55;102411.22;;;4.15;99.81
66668;BME280;57205;51.438;-2.006;2023-03-04T07:22:20;102424.97;;;4.11;99.00
66668;BME280;57205;51.438;-2.006;2023-03-04T07:24:45;102426.00;;;4.10;99.93
66668;BME280;57205;51.438;-2.006;2023-03-04T07:27:10;102430.66;;;4.08;100.00
66668;BME280;57205;51.438;-2.006;2023-03-04T07:29:36;102431.28;;;4.10;100.00
66668;BME280;57205;51.438;-2.006;2023-03-04T07:32:01;102429.13;;;4.13;99.87
66668;BME280;57205;51.438;-2.006;2023-03-04T07:34:30;102426.66;;;4.12;100.00
66668;BME280;57205;51.438;-2.006;2023-03-04T07:36:56;102426.66;;;4.12;100.00
66668;BME280;57205;51.438;-2.006;2023-03-04T07:39:21;102432.41;;;4.15;100.00
66668;BME280;57205;51.438;-2.006;2023-03-04T07:41:46;102422.28;;;4.19;100.00
66668;BME280;57205;51.438;-2.006;2023-03-04T07:44:11;102422.66;;;4.16;100.00
66668;BME280;57205;51.438;-2.006;2023-03-04T07:46:37;102421.09;;;4.21;100.00
66668;BME280;57205;51.438;-2.006;2023-03-04T07:49:02;102432.03;;;4.18;100.00
66668;BME280;57205;51.438;-2.006;2023-03-04T07:51:28;102435.34;;;4.20;100.00
66668;BME280;57205;51.438;-2.006;2023-03-04T07:53:56;102432.16;;;4.25;99.03
66668;BME280;57205;51.438;-2.006;2023-03-04T07:56:23;102423.56;;;4.23;98.09
66668;BME280;57205;51.438;-2.006;2023-03-04T07:58:48;102425.22;;;4.24;98.77
66668;BME280;57205;51.438;-2.006;2023-03-04T08:01:19;102429.34;;;4.26;98.48
66668;BME280;57205;51.438;-2.006;2023-03-04T08:03:45;102428.50;;;4.26;97.33
66668;BME280;57205;51.438;-2.006;2023-03-04T08:06:11;102431.34;;;4.24;97.99
66668;BME280;57205;51.438;-2.006;2023-03-04T08:08:37;102421.38;;;4.26;97.71
66668;BME280;57205;51.438;-2.006;2023-03-04T08:11:03;102426.63;;;4.34;97.29
66668;BME280;57205;51.438;-2.006;2023-03-04T08:13:29;102428.25;;;4.35;97.54
66668;BME280;57205;51.438;-2.006;2023-03-04T08:15:55;102436.41;;;4.34;96.93
66668;BME280;57205;51.438;-2.006;2023-03-04T08:18:20;102430.44;;;4.32;96.28
66668;BME280;57205;51.438;-2.006;2023-03-04T08:20:45;102436.22;;;4.35;96.40
66668;BME280;57205;51.438;-2.006;2023-03-04T08:23:11;102434.41;;;4.36;96.16
66668;BME280;57205;51.438;-2.006;2023-03-04T08:25:39;102435.56;;;4.33;96.44
66668;BME280;57205;51.438;-2.006;2023-03-04T08:28:05;102432.44;;;4.30;96.08
66668;BME280;57205;51.438;-2.006;2023-03-04T08:30:33;102439.56;;;4.29;96.03
66668;BME280;57205;51.438;-2.006;2023-03-04T08:32:59;102446.16;;;4.33;95.64
66668;BME280;57205;51.438;-2.006;2023-03-04T08:35:25;102448.81;;;4.33;96.64
66668;BME280;57205;51.438;-2.006;2023-03-04T08:37:50;102449.13;;;4.38;96.96
66668;BME280;57205;51.438;-2.006;2023-03-04T08:40:15;102453.59;;;4.38;96.38
66668;BME280;57205;51.438;-2.006;2023-03-04T08:42:40;102451.22;;;4.43;95.62
66668;BME280;57205;51.438;-2.006;2023-03-04T08:45:06;102449.41;;;4.43;96.40
66668;BME280;57205;51.438;-2.006;2023-03-04T08:47:32;102457.34;;;4.43;96.34
66668;BME280;57205;51.438;-2.006;2023-03-04T08:49:57;102461.81;;;4.43;96.14
66668;BME280;57205;51.438;-2.006;2023-03-04T08:52:23;102456.97;;;4.46;95.85
66668;BME280;57205;51.438;-2.006;2023-03-04T08:54:48;102459.00;;;4.44;95.61
66668;BME280;57205;51.438;-2.006;2023-03-04T08:57:13;102457.63;;;4.48;95.57
66668;BME280;57205;51.438;-2.006;2023-03-04T08:59:38;102455.44;;;4.52;95.48
66668;BME280;57205;51.438;-2.006;2023-03-04T09:02:04;102460.59;;;4.53;95.86
66668;BME280;57205;51.438;-2.006;2023-03-04T09:04:29;102450.59;;;4.55;95.66
66668;BME280;57205;51.438;-2.006;2023-03-04T09:06:54;102456.22;;;4.60;95.76
66668;BME280;57205;51.438;-2.006;2023-03-04T09:09:19;102452.53;;;4.61;95.51
66668;BME280;57205;51.438;-2.006;2023-03-04T09:11:45;102454.22;;;4.62;94.37
66668;BME280;57205;51.438;-2.006;2023-03-04T09:14:10;102457.00;;;4.61;94.59
66668;BME280;57205;51.438;-2.006;2023-03-04T09:16:35;102453.56;;;4.60;95.14
66668;BME280;57205;51.438;-2.006;2023-03-04T09:19:01;102450.53;;;4.63;94.97
66668;BME280;57205;51.438;-2.006;2023-03-04T09:21:26;102455.66;;;4.65;93.34
66668;BME280;57205;51.438;-2.006;2023-03-04T09:23:51;102454.47;;;4.67;92.75
66668;BME280;57205;51.438;-2.006;2023-03-04T09:26:19;102454.09;;;4.70;92.44
66668;BME280;57205;51.438;-2.006;2023-03-04T09:28:48;102457.13;;;4.67;91.91
66668;BME280;57205;51.438;-2.006;2023-03-04T09:31:14;102458.94;;;4.67;91.87
66668;BME280;57205;51.438;-2.006;2023-03-04T09:33:43;102455.84;;;4.63;91.60
66668;BME280;57205;51.438;-2.006;2023-03-04T09:36:09;102461.25;;;4.70;91.97
66668;BME280;57205;51.438;-2.006;2023-03-04T09:38:35;102460.06;;;4.72;91.59
66668;BME280;57205;51.438;-2.006;2023-03-04T09:41:03;102459.72;;;4.75;91.34
66668;BME280;57205;51.438;-2.006;2023-03-04T09:43:29;102465.66;;;4.77;90.73
66668;BME280;57205;51.438;-2.006;2023-03-04T09:45:56;102472.41;;;4.80;90.29
66668;BME280;57205;51.438;-2.006;2023-03-04T09:48:24;102463.63;;;4.79;89.00
66668;BME280;57205;51.438;-2.006;2023-03-04T09:56:18;102464.00;;;4.76;90.40
66668;BME280;57205;51.438;-2.006;2023-03-04T09:58:53;102466.78;;;4.83;90.48
66668;BME280;57205;51.438;-2.006;2023-03-04T10:01:23;102466.22;;;4.87;91.10
66668;BME280;57205;51.438;-2.006;2023-03-04T10:03:57;102471.44;;;4.95;88.94
66668;BME280;57205;51.438;-2.006;2023-03-04T10:06:23;102477.72;;;4.94;88.64
66668;BME280;57205;51.438;-2.006;2023-03-04T10:11:48;102473.97;;;4.89;87.73
66668;BME280;57205;51.438;-2.006;2023-03-04T10:22:05;102464.91;;;4.83;88.55
66668;BME280;57205;51.438;-2.006;2023-03-04T10:24:38;102459.63;;;4.83;88.44
66668;BME280;57205;51.438;-2.006;2023-03-04T10:27:05;102456.06;;;4.91;88.81
66668;BME280;57205;51.438;-2.006;2023-03-04T10:29:32;102452.94;;;5.02;88.24
66668;BME280;57205;51.438;-2.006;2023-03-04T10:31:57;102452.69;;;5.12;87.28
66668;BME280;57205;51.438;-2.006;2023-03-04T10:34:23;102454.97;;;5.15;86.60
66668;BME280;57205;51.438;-2.006;2023-03-04T10:36:50;102451.31;;;5.16;86.83
66668;BME280;57205;51.438;-2.006;2023-03-04T10:39:20;102451.22;;;5.24;86.09
66668;BME280;57205;51.438;-2.006;2023-03-04T10:41:53;102454.97;;;5.29;86.27
66668;BME280;57205;51.438;-2.006;2023-03-04T10:44:19;102448.91;;;5.21;86.21
66668;BME280;57205;51.438;-2.006;2023-03-04T10:46:45;102448.56;;;5.24;86.50
66668;BME280;57205;51.438;-2.006;2023-03-04T10:49:13;102451.50;;;5.29;86.29
66668;BME280;57205;51.438;-2.006;2023-03-04T10:51:43;102450.00;;;5.26;85.94
66668;BME280;57205;51.438;-2.006;2023-03-04T10:54:13;102445.16;;;5.30;86.63
66668;BME280;57205;51.438;-2.006;2023-03-04T10:56:42;102432.44;;;5.40;86.02
66668;BME280;57205;51.438;-2.006;2023-03-04T11:01:54;102431.91;;;5.44;84.09
66668;BME280;57205;51.438;-2.006;2023-03-04T11:04:21;102432.25;;;5.41;84.35
66668;BME280;57205;51.438;-2.006;2023-03-04T11:06:49;102427.75;;;5.42;84.09
66668;BME280;57205;51.438;-2.006;2023-03-04T11:09:33;102429.34;;;5.36;84.20
66668;BME280;57205;51.438;-2.006;2023-03-04T11:11:58;102422.09;;;5.30;84.59
66668;BME280;57205;51.438;-2.006;2023-03-04T11:14:25;102427.13;;;5.40;84.76
66668;BME280;57205;51.438;-2.006;2023-03-04T11:19:19;102417.97;;;5.42;84.14
66668;BME280;57205;51.438;-2.006;2023-03-04T11:21:47;102411.91;;;5.48;83.64
66668;BME280;57205;51.438;-2.006;2023-03-04T11:24:14;102419.13;;;5.54;83.57
66668;BME280;57205;51.438;-2.006;2023-03-04T11:29:42;102414.44;;;5.56;83.48
66668;BME280;57205;51.438;-2.006;2023-03-04T11:32:26;102404.53;;;5.65;83.14
66668;BME280;57205;51.438;-2.006;2023-03-04T11:35:05;102408.09;;;5.72;83.06
66668;BME280;57205;51.438;-2.006;2023-03-04T11:40:18;102401.84;;;5.79;81.79
66668;BME280;57205;51.438;-2.006;2023-03-04T11:42:54;102398.63;;;5.84;82.09
66668;BME280;57205;51.438;-2.006;2023-03-04T11:45:25;102395.91;;;5.77;81.68
66668;BME280;57205;51.438;-2.006;2023-03-04T11:50:19;102396.25;;;5.74;81.44
66668;BME280;57205;51.438;-2.006;2023-03-04T11:53:00;102394.63;;;5.73;82.10
66668;BME280;57205;51.438;-2.006;2023-03-04T12:00:54;102386.78;;;5.65;82.48
66668;BME280;57205;51.438;-2.006;2023-03-04T12:09:07;102387.47;;;5.53;81.60
66668;BME280;57205;51.438;-2.006;2023-03-04T12:14:26;102378.25;;;5.70;80.36
66668;BME280;57205;51.438;-2.006;2023-03-04T12:27:47;102362.72;;;5.88;74.89
66668;BME280;57205;51.438;-2.006;2023-03-04T12:30:19;102358.69;;;5.92;75.23
66668;BME280;57205;51.438;-2.006;2023-03-04T12:40:54;102338.38;;;6.06;74.78
66668;BME280;57205;51.438;-2.006;2023-03-04T12:45:38;102339.47;;;6.18;74.38
66668;BME280;57205;51.438;-2.006;2023-03-04T12:48:05;102338.63;;;6.17;73.99
66668;BME280;57205;51.438;-2.006;2023-03-04T12:55:46;102334.22;;;6.24;74.34
66668;BME280;57205;51.438;-2.006;2023-03-04T12:58:15;102330.94;;;6.22;74.93
66668;BME280;57205;51.438;-2.006;2023-03-04T13:06:10;102317.53;;;6.09;75.25
66668;BME280;57205;51.438;-2.006;2023-03-04T13:08:39;102320.84;;;6.11;74.93
66668;BME280;57205;51.438;-2.006;2023-03-04T13:11:44;102319.94;;;6.04;76.14
66668;BME280;57205;51.438;-2.006;2023-03-04T13:14:07;102316.13;;;6.13;75.83
66668;BME280;57205;51.438;-2.006;2023-03-04T13:16:47;102317.03;;;5.99;76.13
66668;BME280;57205;51.438;-2.006;2023-03-04T13:21:56;102305.22;;;6.02;76.88
66668;BME280;57205;51.438;-2.006;2023-03-04T13:29:49;102297.13;;;5.88;76.60
66668;BME280;57205;51.438;-2.006;2023-03-04T13:32:24;102293.66;;;5.88;77.11
66668;BME280;57205;51.438;-2.006;2023-03-04T13:34:59;102296.53;;;5.93;76.48
66668;BME280;57205;51.438;-2.006;2023-03-04T13:37:25;102290.44;;;5.93;76.39
66668;BME280;57205;51.438;-2.006;2023-03-04T13:40:22;102290.66;;;5.98;76.28
66668;BME280;57205;51.438;-2.006;2023-03-04T13:42:37;102289.28;;;6.02;75.70
66668;BME280;57205;51.438;-2.006;2023-03-04T13:45:04;102295.28;;;5.89;75.79
66668;BME280;57205;51.438;-2.006;2023-03-04T13:47:39;102288.22;;;5.96;75.27
66668;BME280;57205;51.438;-2.006;2023-03-04T13:50:23;102280.88;;;5.98;75.64
66668;BME280;57205;51.438;-2.006;2023-03-04T13:52:49;102276.78;;;6.02;75.15
66668;BME280;57205;51.438;-2.006;2023-03-04T13:57:58;102280.38;;;5.88;75.21
66668;BME280;57205;51.438;-2.006;2023-03-04T14:00:24;102273.81;;;5.84;75.77
66668;BME280;57205;51.438;-2.006;2023-03-04T14:02:49;102276.56;;;5.76;76.36
66668;BME280;57205;51.438;-2.006;2023-03-04T14:05:15;102273.97;;;5.82;76.01
66668;BME280;57205;51.438;-2.006;2023-03-04T14:07:40;102266.19;;;5.81;76.40
66668;BME280;57205;51.438;-2.006;2023-03-04T14:12:43;102261.88;;;5.80;76.93